West End, New York
Current Conditions -  °F | °C
As of 12:35 PM on Thursday 30 Oct 2014 (Local Time) from KNY0 Reporting Station
Overcast Overcast  
Wind Chill: 42°   Ceiling: 3200
Heat Index: 46°   Visibility: 10mi
Dew Point: 36°   Wind: 7mph
Humidity: 68%   Direction: 330°NNW
Pressure: 29.99"   Gusts: NA
Location:  42.4787°N, 75.0181°W
Report Text: KNY0 301635Z AUTO 33006KT 10SM BKN032 OVC037 08/02 A2999 RMK AO2 T00760020
Loading
Personal Weather Stations






























Interactive Weather Map New forecast layout! Learn more

10-Day Weather Forecast

Advertisements
Track Severe Weather on mobile